createdAt,value
2022-11-06T00:02:07.489Z,5.5
2022-11-06T00:04:33.559Z,5.6
2022-11-06T00:06:58.681Z,5.6
2022-11-06T00:09:24.797Z,5.7
2022-11-06T00:11:50.862Z,5.6
2022-11-06T00:14:17.018Z,5.6
2022-11-06T00:19:09.163Z,5.5
2022-11-06T00:21:35.292Z,5.5
2022-11-06T00:24:01.355Z,5.5
2022-11-06T00:26:27.473Z,5.6
2022-11-06T00:28:53.567Z,5.7
2022-11-06T00:31:19.626Z,5.7
2022-11-06T00:33:45.745Z,5.5
2022-11-06T00:36:11.872Z,5.4
2022-11-06T00:38:36.956Z,5.4
2022-11-06T00:43:29.125Z,5.5
2022-11-06T00:45:55.231Z,5.7
2022-11-06T00:48:21.382Z,5.7
2022-11-06T00:50:47.436Z,5.7
2022-11-06T00:53:13.520Z,5.7
2022-11-06T00:55:39.626Z,5.7
2022-11-06T00:58:05.751Z,5.7
2022-11-06T01:00:31.837Z,5.8
2022-11-06T01:02:57.892Z,5.8
2022-11-06T01:05:23.990Z,5.8
2022-11-06T01:07:50.093Z,5.7
2022-11-06T01:10:15.265Z,5.7
2022-11-06T01:12:41.326Z,5.6
2022-11-06T01:15:07.413Z,5.6
2022-11-06T01:17:33.520Z,5.7
2022-11-06T01:19:59.644Z,5.8
2022-11-06T01:22:25.681Z,5.6
2022-11-06T01:24:51.783Z,5.6
2022-11-06T01:27:17.943Z,5.5
2022-11-06T01:29:44.007Z,5.6
2022-11-06T01:32:10.068Z,5.6
2022-11-06T01:34:36.160Z,5.5
2022-11-06T01:37:02.262Z,5.4
2022-11-06T01:39:28.335Z,5.4
2022-11-06T01:41:53.474Z,5.4
2022-11-06T01:44:19.558Z,5.3
2022-11-06T01:46:45.663Z,5.3
2022-11-06T01:49:11.752Z,5.3
2022-11-06T01:51:37.859Z,5.2
2022-11-06T01:54:03.935Z,5.2
2022-11-06T01:56:30.065Z,5.3
2022-11-06T01:58:56.123Z,5.3
2022-11-06T02:01:22.297Z,5.4
2022-11-06T02:03:48.393Z,5.5
2022-11-06T02:06:14.431Z,5.4
2022-11-06T02:08:40.569Z,5.4
2022-11-06T02:11:06.663Z,5.4
2022-11-06T02:13:31.737Z,5.4
2022-11-06T02:15:57.809Z,5.4
2022-11-06T02:18:23.898Z,5.3
2022-11-06T02:20:50.012Z,5.4
2022-11-06T02:23:16.108Z,5.5
2022-11-06T02:25:42.224Z,5.4
2022-11-06T02:28:07.338Z,5.4
2022-11-06T02:30:33.386Z,5.4
2022-11-06T02:32:59.500Z,5.4
2022-11-06T02:35:25.597Z,5.3
2022-11-06T02:37:51.691Z,5.2
2022-11-06T02:40:17.774Z,5.2
2022-11-06T02:42:43.868Z,5.3
2022-11-06T02:45:09.970Z,5.3
2022-11-06T02:47:36.057Z,5.2
2022-11-06T02:50:02.160Z,5.2
2022-11-06T02:52:28.269Z,5.2
2022-11-06T02:54:54.365Z,5.2
2022-11-06T02:57:20.471Z,5.1
2022-11-06T02:59:45.560Z,5.2
2022-11-06T03:02:11.660Z,5.1
2022-11-06T03:04:37.783Z,5.1
2022-11-06T03:07:03.851Z,5.1
2022-11-06T03:09:29.941Z,4.9
2022-11-06T03:11:56.032Z,4.9
2022-11-06T03:14:22.165Z,4.9
2022-11-06T03:16:48.232Z,4.9
2022-11-06T03:19:14.321Z,4.9
2022-11-06T03:21:40.406Z,5
2022-11-06T03:24:06.528Z,5.1
2022-11-06T03:26:32.679Z,5
2022-11-06T03:28:58.718Z,5.1
2022-11-06T03:31:23.821Z,5.1
2022-11-06T03:33:49.909Z,5
2022-11-06T03:36:16.045Z,5
2022-11-06T03:38:42.109Z,5
2022-11-06T03:41:08.344Z,5
2022-11-06T03:43:34.297Z,4.9
2022-11-06T03:46:00.426Z,4.9
2022-11-06T03:48:26.488Z,4.8
2022-11-06T03:50:52.631Z,4.8
2022-11-06T03:53:18.705Z,4.8
2022-11-06T03:55:44.803Z,4.7
2022-11-06T03:58:10.871Z,4.6
2022-11-06T04:00:36.973Z,4.6
2022-11-06T04:03:02.084Z,4.6
2022-11-06T04:05:28.234Z,4.6
2022-11-06T04:07:54.259Z,4.5
2022-11-06T04:10:20.370Z,4.6
2022-11-06T04:12:46.460Z,4.6
2022-11-06T04:15:12.557Z,4.4
2022-11-06T04:17:38.636Z,4.3
2022-11-06T04:20:04.775Z,4.3
2022-11-06T04:22:30.846Z,4.3
2022-11-06T04:24:56.939Z,4.3
2022-11-06T04:27:23.036Z,4.3
2022-11-06T04:29:49.134Z,4.4
2022-11-06T04:32:15.247Z,4.3
2022-11-06T04:34:40.336Z,4.4
2022-11-06T04:37:06.501Z,4.4
2022-11-06T04:39:32.563Z,4.4
2022-11-06T04:41:58.649Z,4.4
2022-11-06T04:44:24.729Z,4.4
2022-11-06T04:46:50.854Z,4.4
2022-11-06T04:49:16.976Z,4.4
2022-11-06T04:51:43.000Z,4.5
2022-11-06T04:54:09.113Z,4.5
2022-11-06T04:56:35.264Z,4.5
2022-11-06T04:59:01.292Z,4.4
2022-11-06T05:01:27.378Z,4.5
2022-11-06T05:03:53.480Z,4.4
2022-11-06T05:06:18.605Z,4.3
2022-11-06T05:08:44.689Z,4.3
2022-11-06T05:11:10.787Z,4.3
2022-11-06T05:13:36.911Z,4.3
2022-11-06T05:16:02.984Z,4.4
2022-11-06T05:18:29.077Z,4.3
2022-11-06T05:20:55.174Z,4.3
2022-11-06T05:23:21.307Z,4.2
2022-11-06T05:25:47.438Z,4.1
2022-11-06T05:28:13.457Z,4.1
2022-11-06T05:30:39.588Z,4.1
2022-11-06T05:33:05.641Z,4.2
2022-11-06T05:35:31.748Z,4.3
2022-11-06T05:37:56.866Z,4.3
2022-11-06T05:40:22.947Z,4.2
2022-11-06T05:42:49.059Z,4.1
2022-11-06T05:45:15.134Z,4.1
2022-11-06T05:47:41.234Z,4
2022-11-06T05:50:07.414Z,3.9
2022-11-06T05:52:33.443Z,3.8
2022-11-06T05:54:59.548Z,3.9
2022-11-06T05:57:25.621Z,3.9
2022-11-06T05:59:51.718Z,3.8
2022-11-06T06:02:17.821Z,3.9
2022-11-06T06:04:43.911Z,3.8
2022-11-06T06:07:10.014Z,3.8
2022-11-06T06:09:35.173Z,3.9
2022-11-06T06:12:01.226Z,3.7
2022-11-06T06:14:27.352Z,3.8
2022-11-06T06:16:53.412Z,3.8
2022-11-06T06:19:19.558Z,3.8
2022-11-06T06:21:45.607Z,3.8
2022-11-06T06:24:11.756Z,3.7
2022-11-06T06:26:37.832Z,3.6
2022-11-06T06:29:03.899Z,3.5
2022-11-06T06:31:29.974Z,3.6
2022-11-06T06:33:56.104Z,3.7
2022-11-06T06:36:22.184Z,3.6
2022-11-06T06:38:48.285Z,3.6
2022-11-06T06:41:13.465Z,3.5
2022-11-06T06:43:39.535Z,3.5
2022-11-06T06:46:05.572Z,3.5
2022-11-06T06:48:31.705Z,3.5
2022-11-06T06:50:57.789Z,3.5
2022-11-06T06:53:23.856Z,3.7
2022-11-06T06:55:49.962Z,3.8
2022-11-06T06:58:16.136Z,3.8
2022-11-06T07:00:42.160Z,3.8
2022-11-06T07:03:08.236Z,3.8
2022-11-06T07:05:34.351Z,3.8
2022-11-06T07:08:00.464Z,3.8
2022-11-06T07:10:26.613Z,3.8
2022-11-06T07:12:51.703Z,3.9
2022-11-06T07:15:17.730Z,4
2022-11-06T07:17:43.877Z,4.1
2022-11-06T07:20:09.921Z,4.1
2022-11-06T07:22:36.024Z,4
2022-11-06T07:25:02.138Z,4
2022-11-06T07:27:28.214Z,4.2
2022-11-06T07:29:54.346Z,4.2
2022-11-06T07:32:20.409Z,4.2
2022-11-06T07:34:46.534Z,4.2
2022-11-06T07:37:12.600Z,4.1
2022-11-06T07:39:38.693Z,4
2022-11-06T07:42:04.839Z,4
2022-11-06T07:44:29.909Z,4.1
2022-11-06T07:46:56.030Z,4.1
2022-11-06T07:49:22.135Z,4
2022-11-06T07:51:48.193Z,3.9
2022-11-06T07:54:14.298Z,3.8
2022-11-06T07:56:40.452Z,3.9
2022-11-06T07:59:06.559Z,4.1
2022-11-06T08:01:32.628Z,4.1
2022-11-06T08:03:58.703Z,4.1
2022-11-06T08:06:24.806Z,4.2
2022-11-06T08:08:50.914Z,4.2
2022-11-06T08:11:17.052Z,4.1
2022-11-06T08:13:43.095Z,4.1
2022-11-06T08:16:08.167Z,4
2022-11-06T08:18:34.264Z,4.1
2022-11-06T08:21:00.439Z,4.2
2022-11-06T08:23:26.453Z,4.3
2022-11-06T08:25:52.544Z,4.4
2022-11-06T08:28:18.651Z,4.6
2022-11-06T08:30:44.744Z,4.5
2022-11-06T08:33:10.922Z,4.5
2022-11-06T08:35:36.989Z,4.6
2022-11-06T08:38:03.031Z,4.8
2022-11-06T08:40:29.128Z,4.7
2022-11-06T08:42:55.243Z,4.9
2022-11-06T08:45:21.360Z,5
2022-11-06T08:47:46.497Z,5
2022-11-06T08:50:12.564Z,5.1
2022-11-06T08:52:38.661Z,5.2
2022-11-06T08:55:04.725Z,5.3
2022-11-06T08:57:30.844Z,5.5
2022-11-06T08:59:56.919Z,5.5
2022-11-06T09:02:23.071Z,5.6
2022-11-06T09:04:49.101Z,5.8
2022-11-06T09:07:15.302Z,5.8
2022-11-06T09:09:41.318Z,6
2022-11-06T09:12:07.418Z,6
2022-11-06T09:14:33.486Z,6
2022-11-06T09:16:59.579Z,6
2022-11-06T09:19:24.680Z,6.1
2022-11-06T09:21:50.779Z,6.2
2022-11-06T09:24:16.901Z,6.2
2022-11-06T09:26:42.980Z,6.3
2022-11-06T09:29:09.136Z,6.5
2022-11-06T09:31:35.184Z,6.6
2022-11-06T09:34:01.290Z,6.8
2022-11-06T09:36:27.388Z,6.8
2022-11-06T09:38:53.465Z,6.9
2022-11-06T09:41:19.629Z,7
2022-11-06T09:43:45.638Z,7.1
2022-11-06T09:46:11.850Z,7.1
2022-11-06T09:48:37.901Z,7.3
2022-11-06T09:51:02.996Z,7.4
2022-11-06T09:53:29.109Z,7.5
2022-11-06T09:55:55.139Z,7.6
2022-11-06T09:58:21.285Z,7.7
2022-11-06T10:00:47.339Z,7.7
2022-11-06T10:03:13.456Z,7.9
2022-11-06T10:05:39.523Z,8
2022-11-06T10:08:05.650Z,8.1
2022-11-06T10:10:31.751Z,8.2
2022-11-06T10:12:57.803Z,8.3
2022-11-06T10:15:23.964Z,8.5
2022-11-06T10:17:50.014Z,8.6
2022-11-06T10:20:16.198Z,8.7
2022-11-06T10:22:41.230Z,8.8
2022-11-06T10:25:07.311Z,8.8
2022-11-06T10:27:33.474Z,8.9
2022-11-06T10:29:59.574Z,9
2022-11-06T10:32:25.606Z,9.1
2022-11-06T10:34:51.814Z,9.2
2022-11-06T10:37:16.820Z,9.3
2022-11-06T10:39:42.936Z,9.4
2022-11-06T10:42:09.083Z,9.5
2022-11-06T10:44:35.155Z,9.6
2022-11-06T10:47:01.198Z,9.8
2022-11-06T10:49:27.291Z,10
2022-11-06T10:51:53.380Z,10.1
2022-11-06T10:54:19.491Z,10.3
2022-11-06T10:56:45.573Z,10.4
2022-11-06T10:59:11.695Z,10.6
2022-11-06T11:01:37.778Z,10.7
2022-11-06T11:04:03.858Z,10.8
2022-11-06T11:06:29.970Z,10.9
2022-11-06T11:08:55.075Z,10.9
2022-11-06T11:11:21.200Z,10.9
2022-11-06T11:13:47.365Z,10.9
2022-11-06T11:16:13.360Z,10.8
2022-11-06T11:18:39.464Z,10.9
2022-11-06T11:21:05.556Z,10.9
2022-11-06T11:23:31.641Z,10.9
2022-11-06T11:25:57.799Z,11
2022-11-06T11:28:23.848Z,11
2022-11-06T11:30:50.032Z,10.9
2022-11-06T11:33:16.076Z,10.9
2022-11-06T11:35:42.189Z,10.9
2022-11-06T11:38:08.245Z,10.9
2022-11-06T11:40:33.331Z,10.8
2022-11-06T11:42:59.421Z,10.8
2022-11-06T11:45:25.598Z,10.8
2022-11-06T11:47:51.629Z,10.9
2022-11-06T11:50:17.794Z,10.8
2022-11-06T11:52:43.820Z,10.8
2022-11-06T11:55:09.915Z,10.8
2022-11-06T11:57:36.005Z,10.8
2022-11-06T12:00:02.114Z,10.8
2022-11-06T12:02:28.181Z,10.8
2022-11-06T12:04:54.297Z,10.8
2022-11-06T12:07:20.371Z,10.9
2022-11-06T12:09:46.490Z,10.9
2022-11-06T12:12:11.587Z,10.9
2022-11-06T12:14:37.701Z,10.9
2022-11-06T12:17:03.848Z,11
2022-11-06T12:19:29.878Z,11
2022-11-06T12:21:55.978Z,11
2022-11-06T12:24:22.061Z,11
2022-11-06T12:26:48.220Z,11
2022-11-06T12:29:14.266Z,11
2022-11-06T12:31:40.467Z,11
2022-11-06T12:34:06.465Z,11.1
2022-11-06T12:36:32.548Z,11.1
2022-11-06T12:38:58.636Z,11.1
2022-11-06T12:41:24.772Z,11.1
2022-11-06T12:43:49.853Z,11.1
2022-11-06T12:46:15.953Z,11.1
2022-11-06T12:48:42.057Z,11.2
2022-11-06T12:51:08.122Z,11.2
2022-11-06T12:53:34.232Z,11.2
2022-11-06T12:56:00.330Z,11.2
2022-11-06T12:58:26.428Z,11.2
2022-11-06T13:00:52.524Z,11.2
2022-11-06T13:03:18.611Z,11.3
2022-11-06T13:05:44.710Z,11.3
2022-11-06T13:08:10.804Z,11.2
2022-11-06T13:10:36.925Z,11.2
2022-11-06T13:13:03.027Z,11.2
2022-11-06T13:15:28.117Z,11.2
2022-11-06T13:17:54.198Z,11.1
2022-11-06T13:20:20.304Z,11.1
2022-11-06T13:22:46.391Z,11.1
2022-11-06T13:25:12.490Z,11.1
2022-11-06T13:27:38.598Z,11.1
2022-11-06T13:30:04.700Z,11.1
2022-11-06T13:32:30.812Z,11.2
2022-11-06T13:34:56.990Z,11.2
2022-11-06T13:37:23.001Z,11.1
2022-11-06T13:39:49.074Z,11.1
2022-11-06T13:42:15.152Z,11.1
2022-11-06T13:44:41.257Z,11.1
2022-11-06T13:47:06.369Z,11
2022-11-06T13:49:32.520Z,11
2022-11-06T13:51:58.552Z,11
2022-11-06T13:54:24.665Z,10.9
2022-11-06T13:56:50.808Z,10.9
2022-11-06T13:59:16.868Z,10.8
2022-11-06T14:01:42.929Z,10.7
2022-11-06T14:04:09.152Z,10.7
2022-11-06T14:06:35.177Z,10.6
2022-11-06T14:09:01.230Z,10.6
2022-11-06T14:11:27.341Z,10.5
2022-11-06T14:13:53.417Z,10.5
2022-11-06T14:16:19.550Z,10.4
2022-11-06T14:18:44.630Z,10.3
2022-11-06T14:21:10.717Z,10.3
2022-11-06T14:23:36.821Z,10.2
2022-11-06T14:26:02.934Z,10.2
2022-11-06T14:28:29.008Z,10.2
2022-11-06T14:30:55.099Z,10.1
2022-11-06T14:33:21.207Z,10.1
2022-11-06T14:35:47.297Z,10
2022-11-06T14:38:13.387Z,10
2022-11-06T14:40:39.488Z,9.9
2022-11-06T14:43:05.663Z,9.8
2022-11-06T14:45:31.844Z,9.8
2022-11-06T14:47:57.777Z,9.8
2022-11-06T14:50:22.948Z,9.8
2022-11-06T14:55:15.119Z,9.7
2022-11-06T14:57:41.162Z,9.6
2022-11-06T15:00:07.277Z,9.6
2022-11-06T15:02:33.424Z,9.5
2022-11-06T15:04:59.483Z,9.5
2022-11-06T15:07:25.556Z,9.5
2022-11-06T15:09:51.701Z,9.5
2022-11-06T15:12:17.842Z,9.4
2022-11-06T15:14:43.855Z,9.4
2022-11-06T15:17:09.978Z,9.4
2022-11-06T15:19:36.068Z,9.4
2022-11-06T15:22:01.166Z,9.3
2022-11-06T15:24:27.241Z,9.3
2022-11-06T15:26:53.348Z,9.3
2022-11-06T15:29:19.428Z,9.3
2022-11-06T15:31:45.528Z,9.2
2022-11-06T15:34:11.697Z,9.2
2022-11-06T15:36:37.813Z,9.2
2022-11-06T15:39:03.899Z,9.1
2022-11-06T15:41:29.945Z,9.1
2022-11-06T15:43:56.029Z,9.1
2022-11-06T15:46:22.096Z,9
2022-11-06T15:48:48.288Z,9
2022-11-06T15:51:14.288Z,8.9
2022-11-06T15:53:39.427Z,8.8
2022-11-06T15:56:05.583Z,8.8
2022-11-06T15:58:31.609Z,8.7
2022-11-06T16:00:57.728Z,8.6
2022-11-06T16:03:23.809Z,8.6
2022-11-06T16:05:49.888Z,8.5
2022-11-06T16:08:16.047Z,8.4
2022-11-06T16:10:42.090Z,8.2
2022-11-06T16:13:08.187Z,8.2
2022-11-06T16:15:34.264Z,8.1
2022-11-06T16:18:00.436Z,8
2022-11-06T16:20:26.505Z,8
2022-11-06T16:22:52.561Z,7.9
2022-11-06T16:25:17.724Z,7.9
2022-11-06T16:27:43.763Z,7.8
2022-11-06T16:30:09.962Z,7.8
2022-11-06T16:32:35.959Z,7.8
2022-11-06T16:35:02.055Z,7.9
2022-11-06T16:37:28.148Z,7.8
2022-11-06T16:39:54.338Z,7.8
2022-11-06T16:42:20.348Z,7.8
2022-11-06T16:44:46.464Z,7.8
2022-11-06T16:47:12.533Z,7.8
2022-11-06T16:49:38.657Z,7.8
2022-11-06T16:52:04.731Z,7.9
2022-11-06T16:54:30.813Z,7.9
2022-11-06T16:56:55.936Z,7.8
2022-11-06T16:59:22.036Z,7.9
2022-11-06T17:01:48.127Z,7.9
2022-11-06T17:04:14.208Z,7.8
2022-11-06T17:06:40.323Z,7.8
2022-11-06T17:09:06.417Z,7.8
2022-11-06T17:11:32.517Z,7.8
2022-11-06T17:13:58.617Z,7.8
2022-11-06T17:16:24.701Z,7.7
2022-11-06T17:18:50.808Z,7.8
2022-11-06T17:21:16.875Z,7.8
2022-11-06T17:23:43.004Z,7.8
2022-11-06T17:26:09.092Z,7.8
2022-11-06T17:28:34.328Z,7.9
2022-11-06T17:31:00.297Z,7.9
2022-11-06T17:33:26.499Z,7.9
2022-11-06T17:35:52.609Z,7.9
2022-11-06T17:38:18.730Z,8
2022-11-06T17:40:44.779Z,8
2022-11-06T17:43:10.779Z,8
2022-11-06T17:45:36.869Z,8
2022-11-06T17:48:03.066Z,8
2022-11-06T17:50:29.112Z,8.1
2022-11-06T17:52:55.199Z,8.1
2022-11-06T17:55:21.244Z,8.1
2022-11-06T17:57:47.402Z,8.1
2022-11-06T18:00:12.452Z,8.1
2022-11-06T18:02:38.546Z,8.1
2022-11-06T18:05:04.767Z,8.1
2022-11-06T18:07:30.819Z,8.1
2022-11-06T18:09:56.873Z,8.1
2022-11-06T18:12:22.935Z,8.1
2022-11-06T18:14:49.084Z,8.2
2022-11-06T18:17:15.170Z,8.2
2022-11-06T18:19:41.292Z,8.2
2022-11-06T18:22:07.337Z,8.2
2022-11-06T18:24:33.518Z,8.2
2022-11-06T18:26:59.509Z,8.2
2022-11-06T18:29:25.617Z,8.2
2022-11-06T18:31:50.755Z,8.2
2022-11-06T18:34:16.851Z,8.1
2022-11-06T18:36:42.912Z,8.2
2022-11-06T18:39:09.008Z,8.1
2022-11-06T18:41:35.155Z,8.1
2022-11-06T18:44:01.254Z,8.1
2022-11-06T18:46:26.373Z,8.1
2022-11-06T18:48:52.435Z,8
2022-11-06T18:51:18.510Z,7.9
2022-11-06T18:53:44.613Z,7.9
2022-11-06T18:56:10.693Z,7.9
2022-11-06T18:58:36.888Z,7.8
2022-11-06T19:01:02.965Z,7.8
2022-11-06T19:03:28.992Z,7.8
2022-11-06T19:05:55.086Z,7.8
2022-11-06T19:08:21.202Z,7.8
2022-11-06T19:10:47.258Z,7.8
2022-11-06T19:13:13.390Z,7.9
2022-11-06T19:15:39.457Z,8
2022-11-06T19:18:04.588Z,8
2022-11-06T19:20:30.696Z,8.1
2022-11-06T19:22:56.774Z,8.1
2022-11-06T19:25:22.927Z,8.1
2022-11-06T19:27:48.950Z,8.1
2022-11-06T19:30:15.079Z,8.2
2022-11-06T19:32:41.154Z,8.2
2022-11-06T19:35:07.321Z,8.2
2022-11-06T19:37:33.338Z,8.2
2022-11-06T19:39:59.497Z,8.3
2022-11-06T19:42:25.549Z,8.3
2022-11-06T19:44:51.708Z,8.3
2022-11-06T19:47:17.875Z,8.3
2022-11-06T19:49:42.973Z,8.5
2022-11-06T19:52:09.081Z,9
2022-11-06T19:54:35.032Z,9.5
2022-11-06T19:57:01.161Z,9.9
2022-11-06T19:59:27.308Z,10.1
2022-11-06T20:01:53.465Z,10.4
2022-11-06T20:04:19.474Z,10.6
2022-11-06T20:06:45.688Z,10.8
2022-11-06T20:09:11.621Z,10.8
2022-11-06T20:11:37.803Z,10.8
2022-11-06T20:14:03.791Z,10.8
2022-11-06T20:16:30.031Z,10.8
2022-11-06T20:18:56.039Z,10.8
2022-11-06T20:21:21.113Z,10.8
2022-11-06T20:23:47.257Z,10.8
2022-11-06T20:26:13.331Z,10.8
2022-11-06T20:28:39.477Z,10.8
2022-11-06T20:31:05.616Z,10.9
2022-11-06T20:33:31.762Z,10.9
2022-11-06T20:35:57.823Z,10.9
2022-11-06T20:38:23.935Z,10.9
2022-11-06T20:40:50.097Z,11
2022-11-06T20:43:15.966Z,11
2022-11-06T20:45:42.207Z,11
2022-11-06T20:48:08.149Z,11
2022-11-06T20:50:34.355Z,11
2022-11-06T20:52:59.525Z,10.9
2022-11-06T20:55:25.623Z,10.9
2022-11-06T20:57:51.781Z,10.9
2022-11-06T21:00:17.812Z,10.9
2022-11-06T21:02:43.846Z,10.8
2022-11-06T21:05:10.033Z,10.8
2022-11-06T21:07:36.090Z,10.7
2022-11-06T21:10:02.147Z,10.6
2022-11-06T21:12:28.115Z,10.7
2022-11-06T21:14:54.210Z,10.7
2022-11-06T21:17:20.306Z,10.7
2022-11-06T21:19:46.406Z,10.8
2022-11-06T21:22:12.511Z,10.8
2022-11-06T21:24:37.613Z,10.8
2022-11-06T21:27:03.709Z,10.9
2022-11-06T21:29:29.803Z,10.9
2022-11-06T21:31:55.886Z,10.9
2022-11-06T21:34:21.989Z,10.8
2022-11-06T21:36:48.090Z,10.9
2022-11-06T21:39:14.193Z,10.9
2022-11-06T21:41:40.269Z,10.9
2022-11-06T21:44:06.387Z,10.9
2022-11-06T21:46:32.469Z,10.8
2022-11-06T21:48:58.558Z,10.8
2022-11-06T21:51:24.659Z,11
2022-11-06T21:53:50.751Z,11
2022-11-06T21:56:15.876Z,10.9
2022-11-06T21:58:41.974Z,10.9
2022-11-06T22:01:08.064Z,10.9
2022-11-06T22:03:34.149Z,10.8
2022-11-06T22:06:00.310Z,10.7
2022-11-06T22:08:26.345Z,10.6
2022-11-06T22:10:52.437Z,10.5
2022-11-06T22:13:18.546Z,10.4
2022-11-06T22:15:44.613Z,10.3
2022-11-06T22:18:10.735Z,10.2
2022-11-06T22:20:36.831Z,10.1
2022-11-06T22:23:02.908Z,10
2022-11-06T22:25:29.005Z,10
2022-11-06T22:27:54.126Z,10
2022-11-06T22:30:20.217Z,10
2022-11-06T22:32:46.305Z,10
2022-11-06T22:35:12.403Z,10.1
2022-11-06T22:37:38.505Z,10.3
2022-11-06T22:40:04.621Z,10.4
2022-11-06T22:42:30.707Z,10.5
2022-11-06T22:44:56.790Z,10.6
2022-11-06T22:47:22.889Z,10.7
2022-11-06T22:49:48.979Z,10.7
2022-11-06T22:52:15.074Z,10.7
2022-11-06T22:54:41.176Z,10.6
2022-11-06T22:57:07.268Z,10.6
2022-11-06T22:59:32.374Z,10.7
2022-11-06T23:01:58.538Z,10.7
2022-11-06T23:04:24.609Z,10.7
2022-11-06T23:06:50.698Z,10.7
2022-11-06T23:09:16.759Z,10.7
2022-11-06T23:11:42.881Z,10.6
2022-11-06T23:14:08.964Z,10.5
2022-11-06T23:16:35.066Z,10.6
2022-11-06T23:19:01.182Z,10.6
2022-11-06T23:21:27.246Z,10.6
2022-11-06T23:23:53.337Z,10.6
2022-11-06T23:26:19.426Z,10.5
2022-11-06T23:28:45.522Z,10.4
2022-11-06T23:31:10.639Z,10.3
2022-11-06T23:33:36.732Z,10.3
2022-11-06T23:36:02.829Z,10.2
2022-11-06T23:38:28.932Z,10.2
2022-11-06T23:40:55.026Z,10.1
2022-11-06T23:43:21.115Z,10.1
2022-11-06T23:45:47.208Z,10.1
2022-11-06T23:48:13.330Z,10.1
2022-11-06T23:50:39.401Z,10.2
2022-11-06T23:53:05.496Z,10.3
2022-11-06T23:55:31.634Z,10.4
2022-11-06T23:57:57.756Z,10.5
